sensor_id;sensor_type;location;lat;lon;timestamp;pressure;altitude;pressure_sealevel;temperature;humidity
3598;BME280;1813;52.016;8.714;2022-12-17T00:00:26;-16261.94;;;-139.71;66.25
3598;BME280;1813;52.016;8.714;2022-12-17T00:03:15;-16261.94;;;-139.71;66.28
3598;BME280;1813;52.016;8.714;2022-12-17T00:06:04;-16261.94;;;-139.71;66.09
3598;BME280;1813;52.016;8.714;2022-12-17T00:08:50;-16261.94;;;-139.71;66.02
3598;BME280;1813;52.016;8.714;2022-12-17T00:11:36;-16261.94;;;-139.71;65.91
3598;BME280;1813;52.016;8.714;2022-12-17T00:14:22;-16261.94;;;-139.71;65.94
3598;BME280;1813;52.016;8.714;2022-12-17T00:17:08;-16261.94;;;-139.71;65.91
3598;BME280;1813;52.016;8.714;2022-12-17T00:19:54;-16261.94;;;-139.71;65.81
3598;BME280;1813;52.016;8.714;2022-12-17T00:22:43;-16261.94;;;-139.71;65.70
3598;BME280;1813;52.016;8.714;2022-12-17T00:25:29;-16261.94;;;-139.71;65.68
3598;BME280;1813;52.016;8.714;2022-12-17T00:28:15;-16261.94;;;-139.71;65.68
3598;BME280;1813;52.016;8.714;2022-12-17T00:31:01;-16261.94;;;-139.71;65.44
3598;BME280;1813;52.016;8.714;2022-12-17T00:33:48;-16261.94;;;-139.71;65.54
3598;BME280;1813;52.016;8.714;2022-12-17T00:36:34;-16261.94;;;-139.71;65.60
3598;BME280;1813;52.016;8.714;2022-12-17T00:39:22;-16261.94;;;-139.71;65.56
3598;BME280;1813;52.016;8.714;2022-12-17T00:42:09;-16261.94;;;-139.71;65.22
3598;BME280;1813;52.016;8.714;2022-12-17T00:44:55;-16261.94;;;-139.71;64.81
3598;BME280;1813;52.016;8.714;2022-12-17T00:47:50;-16261.94;;;-139.71;64.81
3598;BME280;1813;52.016;8.714;2022-12-17T00:50:38;-16261.94;;;-139.71;64.87
3598;BME280;1813;52.016;8.714;2022-12-17T00:53:24;-16261.94;;;-139.71;64.63
3598;BME280;1813;52.016;8.714;2022-12-17T00:56:13;-16261.94;;;-139.71;64.75
3598;BME280;1813;52.016;8.714;2022-12-17T00:58:59;-16261.94;;;-139.71;65.11
3598;BME280;1813;52.016;8.714;2022-12-17T01:01:45;-16261.94;;;-139.71;65.37
3598;BME280;1813;52.016;8.714;2022-12-17T01:04:31;-16261.94;;;-139.71;65.64
3598;BME280;1813;52.016;8.714;2022-12-17T01:07:17;-16261.94;;;-139.71;65.98
3598;BME280;1813;52.016;8.714;2022-12-17T01:10:04;-16261.94;;;-139.71;66.06
3598;BME280;1813;52.016;8.714;2022-12-17T01:12:53;-16261.94;;;-139.71;66.13
3598;BME280;1813;52.016;8.714;2022-12-17T01:15:40;-16261.94;;;-139.71;65.84
3598;BME280;1813;52.016;8.714;2022-12-17T01:18:26;-16261.94;;;-139.71;65.32
3598;BME280;1813;52.016;8.714;2022-12-17T01:21:12;-16261.94;;;-139.71;65.52
3598;BME280;1813;52.016;8.714;2022-12-17T01:23:59;-16261.94;;;-139.71;65.39
3598;BME280;1813;52.016;8.714;2022-12-17T01:26:45;-16261.94;;;-139.71;65.46
3598;BME280;1813;52.016;8.714;2022-12-17T01:29:33;-16261.94;;;-139.71;65.54
3598;BME280;1813;52.016;8.714;2022-12-17T01:32:20;-16261.94;;;-139.71;65.43
3598;BME280;1813;52.016;8.714;2022-12-17T01:35:06;-16261.94;;;-139.71;65.26
3598;BME280;1813;52.016;8.714;2022-12-17T01:37:53;-16261.94;;;-139.71;65.05
3598;BME280;1813;52.016;8.714;2022-12-17T01:40:38;-16261.94;;;-139.71;64.82
3598;BME280;1813;52.016;8.714;2022-12-17T01:43:32;-16261.94;;;-139.71;64.53
3598;BME280;1813;52.016;8.714;2022-12-17T01:46:21;-16261.94;;;-139.71;64.05
3598;BME280;1813;52.016;8.714;2022-12-17T01:49:08;-16261.94;;;-139.71;63.58
3598;BME280;1813;52.016;8.714;2022-12-17T01:51:56;-16261.94;;;-139.71;63.28
3598;BME280;1813;52.016;8.714;2022-12-17T01:54:43;-16261.94;;;-139.71;63.18
3598;BME280;1813;52.016;8.714;2022-12-17T01:57:30;-16261.94;;;-139.71;62.54
3598;BME280;1813;52.016;8.714;2022-12-17T02:00:17;-16261.94;;;-139.71;62.27
3598;BME280;1813;52.016;8.714;2022-12-17T02:03:16;-16261.94;;;-139.71;62.05
3598;BME280;1813;52.016;8.714;2022-12-17T02:06:07;-16261.94;;;-139.71;61.67
3598;BME280;1813;52.016;8.714;2022-12-17T02:09:01;-16261.94;;;-139.71;61.33
3598;BME280;1813;52.016;8.714;2022-12-17T02:11:55;-16261.94;;;-139.71;61.04
3598;BME280;1813;52.016;8.714;2022-12-17T02:14:58;-16261.94;;;-139.71;60.59
3598;BME280;1813;52.016;8.714;2022-12-17T02:17:48;-16261.94;;;-139.71;60.25
3598;BME280;1813;52.016;8.714;2022-12-17T02:20:49;-16261.94;;;-139.71;60.33
3598;BME280;1813;52.016;8.714;2022-12-17T02:23:41;-16261.94;;;-139.71;60.42
3598;BME280;1813;52.016;8.714;2022-12-17T02:26:39;-16261.94;;;-139.71;60.53
3598;BME280;1813;52.016;8.714;2022-12-17T02:29:28;-16261.94;;;-139.71;60.62
3598;BME280;1813;52.016;8.714;2022-12-17T02:32:17;-16261.94;;;-139.71;60.52
3598;BME280;1813;52.016;8.714;2022-12-17T02:35:14;-16261.94;;;-139.71;60.34
3598;BME280;1813;52.016;8.714;2022-12-17T02:38:00;-16261.94;;;-139.71;59.89
3598;BME280;1813;52.016;8.714;2022-12-17T02:40:47;-16261.94;;;-139.71;59.66
3598;BME280;1813;52.016;8.714;2022-12-17T02:43:37;-16261.94;;;-139.71;59.63
3598;BME280;1813;52.016;8.714;2022-12-17T02:46:23;-16261.94;;;-139.71;59.63
3598;BME280;1813;52.016;8.714;2022-12-17T02:49:09;-16261.94;;;-139.71;59.40
3598;BME280;1813;52.016;8.714;2022-12-17T02:51:57;-16261.94;;;-139.71;59.53
3598;BME280;1813;52.016;8.714;2022-12-17T02:54:58;-16261.94;;;-139.71;59.55
3598;BME280;1813;52.016;8.714;2022-12-17T02:57:46;-16261.94;;;-139.71;59.48
3598;BME280;1813;52.016;8.714;2022-12-17T03:00:35;-16261.94;;;-139.71;59.37
3598;BME280;1813;52.016;8.714;2022-12-17T03:03:21;-16261.94;;;-139.71;58.83
3598;BME280;1813;52.016;8.714;2022-12-17T03:06:08;-16261.94;;;-139.71;58.58
3598;BME280;1813;52.016;8.714;2022-12-17T03:08:54;-16261.94;;;-139.71;58.53
3598;BME280;1813;52.016;8.714;2022-12-17T03:11:40;-16261.94;;;-139.71;58.09
3598;BME280;1813;52.016;8.714;2022-12-17T03:14:26;-16261.94;;;-139.71;57.99
3598;BME280;1813;52.016;8.714;2022-12-17T03:17:15;-16261.94;;;-139.71;58.05
3598;BME280;1813;52.016;8.714;2022-12-17T03:20:01;-16261.94;;;-139.71;58.19
3598;BME280;1813;52.016;8.714;2022-12-17T03:22:48;-16261.94;;;-139.71;58.16
3598;BME280;1813;52.016;8.714;2022-12-17T03:25:34;-16261.94;;;-139.71;58.05
3598;BME280;1813;52.016;8.714;2022-12-17T03:28:20;-16261.94;;;-139.71;57.93
3598;BME280;1813;52.016;8.714;2022-12-17T03:31:06;-16261.94;;;-139.71;57.73
3598;BME280;1813;52.016;8.714;2022-12-17T03:33:55;-16261.94;;;-139.71;57.49
3598;BME280;1813;52.016;8.714;2022-12-17T03:36:41;-16261.94;;;-139.71;57.30
3598;BME280;1813;52.016;8.714;2022-12-17T03:39:27;-16261.94;;;-139.71;56.59
3598;BME280;1813;52.016;8.714;2022-12-17T03:42:13;-16261.94;;;-139.71;56.59
3598;BME280;1813;52.016;8.714;2022-12-17T03:44:59;-16261.94;;;-139.71;57.14
3598;BME280;1813;52.016;8.714;2022-12-17T03:47:46;-16261.94;;;-139.71;57.17
3598;BME280;1813;52.016;8.714;2022-12-17T03:50:35;-16261.94;;;-139.71;56.72
3598;BME280;1813;52.016;8.714;2022-12-17T03:53:21;-16261.94;;;-139.71;56.47
3598;BME280;1813;52.016;8.714;2022-12-17T03:56:07;-16261.94;;;-139.71;56.87
3598;BME280;1813;52.016;8.714;2022-12-17T03:58:53;-16261.94;;;-139.71;57.47
3598;BME280;1813;52.016;8.714;2022-12-17T04:01:39;-16261.94;;;-139.71;58.33
3598;BME280;1813;52.016;8.714;2022-12-17T04:04:25;-16261.94;;;-139.71;58.65
3598;BME280;1813;52.016;8.714;2022-12-17T04:07:14;-16261.94;;;-139.71;59.14
3598;BME280;1813;52.016;8.714;2022-12-17T04:10:00;-16261.94;;;-139.71;59.60
3598;BME280;1813;52.016;8.714;2022-12-17T04:12:46;-16261.94;;;-139.71;59.75
3598;BME280;1813;52.016;8.714;2022-12-17T04:15:32;-16261.94;;;-139.71;59.77
3598;BME280;1813;52.016;8.714;2022-12-17T04:18:19;-16261.94;;;-139.71;59.35
3598;BME280;1813;52.016;8.714;2022-12-17T04:21:05;-16261.94;;;-139.71;58.75
3598;BME280;1813;52.016;8.714;2022-12-17T04:23:54;-16261.94;;;-139.71;58.82
3598;BME280;1813;52.016;8.714;2022-12-17T04:26:40;-16261.94;;;-139.71;59.01
3598;BME280;1813;52.016;8.714;2022-12-17T04:29:26;-16261.94;;;-139.71;58.86
3598;BME280;1813;52.016;8.714;2022-12-17T04:32:18;-16261.94;;;-139.71;58.52
3598;BME280;1813;52.016;8.714;2022-12-17T04:35:04;-16261.94;;;-139.71;58.37
3598;BME280;1813;52.016;8.714;2022-12-17T04:37:50;-16261.94;;;-139.71;57.99
3598;BME280;1813;52.016;8.714;2022-12-17T04:40:39;-16261.94;;;-139.71;57.79
3598;BME280;1813;52.016;8.714;2022-12-17T04:43:31;-16261.94;;;-139.71;57.82
3598;BME280;1813;52.016;8.714;2022-12-17T04:46:17;-16261.94;;;-139.71;58.22
3598;BME280;1813;52.016;8.714;2022-12-17T04:49:03;-16261.94;;;-139.71;58.89
3598;BME280;1813;52.016;8.714;2022-12-17T04:51:49;-16261.94;;;-139.71;59.64
3598;BME280;1813;52.016;8.714;2022-12-17T04:54:35;-16261.94;;;-139.71;60.36
3598;BME280;1813;52.016;8.714;2022-12-17T04:57:24;-16261.94;;;-139.71;60.88
3598;BME280;1813;52.016;8.714;2022-12-17T05:00:12;-16261.94;;;-139.71;61.27
3598;BME280;1813;52.016;8.714;2022-12-17T05:03:03;-16261.94;;;-139.71;61.50
3598;BME280;1813;52.016;8.714;2022-12-17T05:05:49;-16261.94;;;-139.71;61.94
3598;BME280;1813;52.016;8.714;2022-12-17T05:08:35;-16261.94;;;-139.71;62.10
3598;BME280;1813;52.016;8.714;2022-12-17T05:11:22;-16261.94;;;-139.71;62.12
3598;BME280;1813;52.016;8.714;2022-12-17T05:14:10;-16261.94;;;-139.71;61.84
3598;BME280;1813;52.016;8.714;2022-12-17T05:16:57;-16261.94;;;-139.71;61.79
3598;BME280;1813;52.016;8.714;2022-12-17T05:19:43;-16261.94;;;-139.71;61.50
3598;BME280;1813;52.016;8.714;2022-12-17T05:22:29;-16261.94;;;-139.71;61.23
3598;BME280;1813;52.016;8.714;2022-12-17T05:25:16;-16261.94;;;-139.71;61.07
3598;BME280;1813;52.016;8.714;2022-12-17T05:28:02;-16261.94;;;-139.71;60.90
3598;BME280;1813;52.016;8.714;2022-12-17T05:30:53;-16261.94;;;-139.71;60.62
3598;BME280;1813;52.016;8.714;2022-12-17T05:33:40;-16261.94;;;-139.71;60.71
3598;BME280;1813;52.016;8.714;2022-12-17T05:36:26;-16261.94;;;-139.71;60.59
3598;BME280;1813;52.016;8.714;2022-12-17T05:39:13;-16261.94;;;-139.71;60.44
3598;BME280;1813;52.016;8.714;2022-12-17T05:42:02;-16261.94;;;-139.71;60.09
3598;BME280;1813;52.016;8.714;2022-12-17T05:44:48;-16261.94;;;-139.71;59.82
3598;BME280;1813;52.016;8.714;2022-12-17T05:47:36;-16261.94;;;-139.71;59.98
3598;BME280;1813;52.016;8.714;2022-12-17T05:50:22;-16261.94;;;-139.71;60.25
3598;BME280;1813;52.016;8.714;2022-12-17T05:53:09;-16261.94;;;-139.71;60.47
3598;BME280;1813;52.016;8.714;2022-12-17T05:55:55;-16261.94;;;-139.71;60.63
3598;BME280;1813;52.016;8.714;2022-12-17T05:58:41;-16261.94;;;-139.71;60.42
3598;BME280;1813;52.016;8.714;2022-12-17T06:01:27;-16261.94;;;-139.71;60.49
3598;BME280;1813;52.016;8.714;2022-12-17T06:04:16;-16261.94;;;-139.71;60.57
3598;BME280;1813;52.016;8.714;2022-12-17T06:07:02;-16261.94;;;-139.71;60.68
3598;BME280;1813;52.016;8.714;2022-12-17T06:09:48;-16261.94;;;-139.71;60.68
3598;BME280;1813;52.016;8.714;2022-12-17T06:12:34;-16261.94;;;-139.71;60.72
3598;BME280;1813;52.016;8.714;2022-12-17T06:15:20;-16261.94;;;-139.71;60.92
3598;BME280;1813;52.016;8.714;2022-12-17T06:18:07;-16261.94;;;-139.71;61.01
3598;BME280;1813;52.016;8.714;2022-12-17T06:20:56;-16261.94;;;-139.71;60.98
3598;BME280;1813;52.016;8.714;2022-12-17T06:23:42;-16261.94;;;-139.71;60.97
3598;BME280;1813;52.016;8.714;2022-12-17T06:26:28;-16261.94;;;-139.71;60.93
3598;BME280;1813;52.016;8.714;2022-12-17T06:29:20;-16261.94;;;-139.71;61.02
3598;BME280;1813;52.016;8.714;2022-12-17T06:32:06;-16261.94;;;-139.71;60.91
3598;BME280;1813;52.016;8.714;2022-12-17T06:34:52;-16261.94;;;-139.71;60.86
3598;BME280;1813;52.016;8.714;2022-12-17T06:37:41;-16261.94;;;-139.71;60.79
3598;BME280;1813;52.016;8.714;2022-12-17T06:40:27;-16261.94;;;-139.71;60.72
3598;BME280;1813;52.016;8.714;2022-12-17T06:43:13;-16261.94;;;-139.71;60.60
3598;BME280;1813;52.016;8.714;2022-12-17T06:45:59;-16261.94;;;-139.71;60.26
3598;BME280;1813;52.016;8.714;2022-12-17T06:48:46;-16261.94;;;-139.71;59.55
3598;BME280;1813;52.016;8.714;2022-12-17T06:51:47;-16261.94;;;-139.71;59.28
3598;BME280;1813;52.016;8.714;2022-12-17T06:54:35;-16261.94;;;-139.71;59.11
3598;BME280;1813;52.016;8.714;2022-12-17T06:57:22;-16261.94;;;-139.71;58.72
3598;BME280;1813;52.016;8.714;2022-12-17T07:00:09;-16261.94;;;-139.71;58.45
3598;BME280;1813;52.016;8.714;2022-12-17T07:02:56;-16261.94;;;-139.71;58.91
3598;BME280;1813;52.016;8.714;2022-12-17T07:05:42;-16261.94;;;-139.71;59.48
3598;BME280;1813;52.016;8.714;2022-12-17T07:08:29;-16261.94;;;-139.71;59.67
3598;BME280;1813;52.016;8.714;2022-12-17T07:11:19;-16261.94;;;-139.71;59.70
3598;BME280;1813;52.016;8.714;2022-12-17T07:14:05;-16261.94;;;-139.71;59.73
3598;BME280;1813;52.016;8.714;2022-12-17T07:16:51;-16261.94;;;-139.71;59.44
3598;BME280;1813;52.016;8.714;2022-12-17T07:19:37;-16261.94;;;-139.71;59.42
3598;BME280;1813;52.016;8.714;2022-12-17T07:22:23;-16261.94;;;-139.71;59.31
3598;BME280;1813;52.016;8.714;2022-12-17T07:25:09;-16261.94;;;-139.71;59.20
3598;BME280;1813;52.016;8.714;2022-12-17T07:27:58;-16261.94;;;-139.71;59.30
3598;BME280;1813;52.016;8.714;2022-12-17T07:30:44;-16261.94;;;-139.71;59.60
3598;BME280;1813;52.016;8.714;2022-12-17T07:33:30;-16261.94;;;-139.71;59.74
3598;BME280;1813;52.016;8.714;2022-12-17T07:36:16;-16261.94;;;-139.71;59.92
3598;BME280;1813;52.016;8.714;2022-12-17T07:39:03;-16261.94;;;-139.71;60.07
3598;BME280;1813;52.016;8.714;2022-12-17T07:41:49;-16261.94;;;-139.71;60.11
3598;BME280;1813;52.016;8.714;2022-12-17T07:44:38;-16261.94;;;-139.71;59.90
3598;BME280;1813;52.016;8.714;2022-12-17T07:47:24;-16261.94;;;-139.71;59.88
3598;BME280;1813;52.016;8.714;2022-12-17T07:50:10;-16261.94;;;-139.71;59.74
3598;BME280;1813;52.016;8.714;2022-12-17T07:53:00;-16261.94;;;-139.71;59.35
3598;BME280;1813;52.016;8.714;2022-12-17T07:55:50;-16261.94;;;-139.71;59.35
3598;BME280;1813;52.016;8.714;2022-12-17T07:58:36;-16261.94;;;-139.71;59.66
3598;BME280;1813;52.016;8.714;2022-12-17T08:01:25;-16261.94;;;-139.71;60.18
3598;BME280;1813;52.016;8.714;2022-12-17T08:04:11;-16261.94;;;-139.71;60.48
3598;BME280;1813;52.016;8.714;2022-12-17T08:06:57;-16261.94;;;-139.71;60.82
3598;BME280;1813;52.016;8.714;2022-12-17T08:09:49;-16261.94;;;-139.71;60.93
3598;BME280;1813;52.016;8.714;2022-12-17T08:12:35;-16261.94;;;-139.71;60.74
3598;BME280;1813;52.016;8.714;2022-12-17T08:15:21;-16261.94;;;-139.71;60.76
3598;BME280;1813;52.016;8.714;2022-12-17T08:18:10;-16261.94;;;-139.71;60.90
3598;BME280;1813;52.016;8.714;2022-12-17T08:20:56;-16261.94;;;-139.71;60.96
3598;BME280;1813;52.016;8.714;2022-12-17T08:23:42;-16261.94;;;-139.71;60.78
3598;BME280;1813;52.016;8.714;2022-12-17T08:26:29;-16261.94;;;-139.71;61.11
3598;BME280;1813;52.016;8.714;2022-12-17T08:29:15;-16261.94;;;-139.71;61.47
3598;BME280;1813;52.016;8.714;2022-12-17T08:32:01;-16261.94;;;-139.71;61.77
3598;BME280;1813;52.016;8.714;2022-12-17T08:34:50;-16261.94;;;-139.71;62.18
3598;BME280;1813;52.016;8.714;2022-12-17T08:37:36;-16261.94;;;-139.71;62.57
3598;BME280;1813;52.016;8.714;2022-12-17T08:40:22;-16261.94;;;-139.71;62.94
3598;BME280;1813;52.016;8.714;2022-12-17T08:43:08;-16261.94;;;-139.71;63.30
3598;BME280;1813;52.016;8.714;2022-12-17T08:45:54;-16261.94;;;-139.71;63.52
3598;BME280;1813;52.016;8.714;2022-12-17T08:48:40;-16261.94;;;-139.71;63.64
3598;BME280;1813;52.016;8.714;2022-12-17T08:51:29;-16261.94;;;-139.71;63.73
3598;BME280;1813;52.016;8.714;2022-12-17T08:54:18;-16261.94;;;-139.71;63.88
3598;BME280;1813;52.016;8.714;2022-12-17T08:57:04;-16261.94;;;-139.71;64.14
3598;BME280;1813;52.016;8.714;2022-12-17T08:59:53;-16261.94;;;-139.71;64.25
3598;BME280;1813;52.016;8.714;2022-12-17T09:02:42;-16261.94;;;-139.71;64.64
3598;BME280;1813;52.016;8.714;2022-12-17T09:05:30;-16261.94;;;-139.71;65.49
3598;BME280;1813;52.016;8.714;2022-12-17T09:08:19;-16261.94;;;-139.71;66.47
3598;BME280;1813;52.016;8.714;2022-12-17T09:11:05;-16261.94;;;-139.71;67.06
3598;BME280;1813;52.016;8.714;2022-12-17T09:13:51;-16261.94;;;-139.71;67.42
3598;BME280;1813;52.016;8.714;2022-12-17T09:16:37;-16261.94;;;-139.71;67.46
3598;BME280;1813;52.016;8.714;2022-12-17T09:19:23;-16261.94;;;-139.71;67.50
3598;BME280;1813;52.016;8.714;2022-12-17T09:22:09;-16261.94;;;-139.71;66.97
3598;BME280;1813;52.016;8.714;2022-12-17T09:24:58;-16261.94;;;-139.71;66.28
3598;BME280;1813;52.016;8.714;2022-12-17T09:27:44;-16261.94;;;-139.71;65.42
3598;BME280;1813;52.016;8.714;2022-12-17T09:30:30;-16261.94;;;-139.71;64.32
3598;BME280;1813;52.016;8.714;2022-12-17T09:33:17;-16261.94;;;-139.71;63.01
3598;BME280;1813;52.016;8.714;2022-12-17T09:36:04;-16261.94;;;-139.71;61.97
3598;BME280;1813;52.016;8.714;2022-12-17T09:38:51;-16261.94;;;-139.71;60.93
3598;BME280;1813;52.016;8.714;2022-12-17T09:41:46;-16261.94;;;-139.71;59.89
3598;BME280;1813;52.016;8.714;2022-12-17T09:44:39;-16261.94;;;-139.71;58.75
3598;BME280;1813;52.016;8.714;2022-12-17T09:47:34;-16261.94;;;-139.71;57.93
3598;BME280;1813;52.016;8.714;2022-12-17T09:50:24;-16261.94;;;-139.71;56.83
3598;BME280;1813;52.016;8.714;2022-12-17T09:53:19;-16261.94;;;-139.71;55.60
3598;BME280;1813;52.016;8.714;2022-12-17T09:56:09;-16261.94;;;-139.71;55.40
3598;BME280;1813;52.016;8.714;2022-12-17T09:58:59;-16261.94;;;-139.71;54.44
3598;BME280;1813;52.016;8.714;2022-12-17T10:01:45;-16261.94;;;-139.71;53.72
3598;BME280;1813;52.016;8.714;2022-12-17T10:04:46;-16261.94;;;-139.71;53.16
3598;BME280;1813;52.016;8.714;2022-12-17T10:07:35;-16261.94;;;-139.71;52.01
3598;BME280;1813;52.016;8.714;2022-12-17T10:10:24;-16261.94;;;-139.71;51.08
3598;BME280;1813;52.016;8.714;2022-12-17T10:13:11;-16261.94;;;-139.71;50.68
3598;BME280;1813;52.016;8.714;2022-12-17T10:16:01;-16261.94;;;-139.71;50.54
3598;BME280;1813;52.016;8.714;2022-12-17T10:18:48;-16261.94;;;-139.71;50.63
3598;BME280;1813;52.016;8.714;2022-12-17T10:21:35;-16261.94;;;-139.71;51.16
3598;BME280;1813;52.016;8.714;2022-12-17T10:24:26;-16261.94;;;-139.71;51.18
3598;BME280;1813;52.016;8.714;2022-12-17T10:27:16;-16261.94;;;-139.71;50.99
3598;BME280;1813;52.016;8.714;2022-12-17T10:30:04;-16261.94;;;-139.71;50.97
3598;BME280;1813;52.016;8.714;2022-12-17T10:33:04;-16261.94;;;-139.71;50.88
3598;BME280;1813;52.016;8.714;2022-12-17T10:35:50;-16261.94;;;-139.71;50.89
3598;BME280;1813;52.016;8.714;2022-12-17T10:38:37;-16261.94;;;-139.71;51.13
3598;BME280;1813;52.016;8.714;2022-12-17T10:41:25;-16261.94;;;-139.71;51.31
3598;BME280;1813;52.016;8.714;2022-12-17T10:44:22;-16261.94;;;-139.71;50.92
3598;BME280;1813;52.016;8.714;2022-12-17T10:47:13;-16261.94;;;-139.71;50.51
3598;BME280;1813;52.016;8.714;2022-12-17T10:50:07;-16261.94;;;-139.71;50.44
3598;BME280;1813;52.016;8.714;2022-12-17T10:53:16;-16261.94;;;-139.71;50.70
3598;BME280;1813;52.016;8.714;2022-12-17T10:56:04;-16261.94;;;-139.71;50.14
3598;BME280;1813;52.016;8.714;2022-12-17T10:58:52;-16261.94;;;-139.71;49.82
3598;BME280;1813;52.016;8.714;2022-12-17T11:01:39;-16261.94;;;-139.71;49.66
3598;BME280;1813;52.016;8.714;2022-12-17T11:04:28;-16261.94;;;-139.71;49.41
3598;BME280;1813;52.016;8.714;2022-12-17T11:07:24;-16261.94;;;-139.71;49.45
3598;BME280;1813;52.016;8.714;2022-12-17T11:10:17;-16261.94;;;-139.71;49.48
3598;BME280;1813;52.016;8.714;2022-12-17T11:13:08;-16261.94;;;-139.71;49.38
3598;BME280;1813;52.016;8.714;2022-12-17T11:15:57;-16261.94;;;-139.71;48.86
3598;BME280;1813;52.016;8.714;2022-12-17T11:18:49;-16261.94;;;-139.71;48.93
3598;BME280;1813;52.016;8.714;2022-12-17T11:21:40;-16261.94;;;-139.71;48.52
3598;BME280;1813;52.016;8.714;2022-12-17T11:24:34;-16261.94;;;-139.71;48.29
3598;BME280;1813;52.016;8.714;2022-12-17T11:27:28;-16261.94;;;-139.71;48.24
3598;BME280;1813;52.016;8.714;2022-12-17T11:30:16;-16261.94;;;-139.71;48.94
3598;BME280;1813;52.016;8.714;2022-12-17T11:33:10;-16261.94;;;-139.71;48.61
3598;BME280;1813;52.016;8.714;2022-12-17T11:36:05;-16261.94;;;-139.71;48.54
3598;BME280;1813;52.016;8.714;2022-12-17T11:38:57;-16261.94;;;-139.71;48.98
3598;BME280;1813;52.016;8.714;2022-12-17T11:41:56;-16261.94;;;-139.71;49.29
3598;BME280;1813;52.016;8.714;2022-12-17T11:44:51;-16261.94;;;-139.71;48.67
3598;BME280;1813;52.016;8.714;2022-12-17T11:47:47;-16261.94;;;-139.71;48.71
3598;BME280;1813;52.016;8.714;2022-12-17T11:50:42;-16261.94;;;-139.71;48.71
3598;BME280;1813;52.016;8.714;2022-12-17T11:53:52;-16261.94;;;-139.71;48.52
3598;BME280;1813;52.016;8.714;2022-12-17T11:56:44;-16261.94;;;-139.71;48.37
3598;BME280;1813;52.016;8.714;2022-12-17T11:59:41;-16261.94;;;-139.71;47.95
3598;BME280;1813;52.016;8.714;2022-12-17T12:02:41;-16261.94;;;-139.71;47.66
3598;BME280;1813;52.016;8.714;2022-12-17T12:05:36;-16261.94;;;-139.71;47.68
3598;BME280;1813;52.016;8.714;2022-12-17T12:08:28;-16261.94;;;-139.71;47.82
3598;BME280;1813;52.016;8.714;2022-12-17T12:11:27;-16261.94;;;-139.71;47.57
3598;BME280;1813;52.016;8.714;2022-12-17T12:14:26;-16261.94;;;-139.71;47.37
3598;BME280;1813;52.016;8.714;2022-12-17T12:17:29;-16261.94;;;-139.71;47.06
3598;BME280;1813;52.016;8.714;2022-12-17T12:20:35;-16261.94;;;-139.71;46.84
3598;BME280;1813;52.016;8.714;2022-12-17T12:23:34;-16261.94;;;-139.71;46.66
3598;BME280;1813;52.016;8.714;2022-12-17T12:26:28;-16261.94;;;-139.71;46.27
3598;BME280;1813;52.016;8.714;2022-12-17T12:29:23;-16261.94;;;-139.71;45.91
3598;BME280;1813;52.016;8.714;2022-12-17T12:32:21;-16261.94;;;-139.71;45.69
3598;BME280;1813;52.016;8.714;2022-12-17T12:35:17;-16261.94;;;-139.71;45.65
3598;BME280;1813;52.016;8.714;2022-12-17T12:38:09;-16261.94;;;-139.71;45.49
3598;BME280;1813;52.016;8.714;2022-12-17T12:41:02;-16261.94;;;-139.71;45.61
3598;BME280;1813;52.016;8.714;2022-12-17T12:43:54;-16261.94;;;-139.71;45.85
3598;BME280;1813;52.016;8.714;2022-12-17T12:46:50;-16261.94;;;-139.71;45.49
3598;BME280;1813;52.016;8.714;2022-12-17T12:49:42;-16261.94;;;-139.71;45.52
3598;BME280;1813;52.016;8.714;2022-12-17T12:52:44;-16261.94;;;-139.71;45.25
3598;BME280;1813;52.016;8.714;2022-12-17T12:55:38;-16261.94;;;-139.71;45.22
3598;BME280;1813;52.016;8.714;2022-12-17T12:58:26;-16261.94;;;-139.71;45.21
3598;BME280;1813;52.016;8.714;2022-12-17T13:01:14;-16261.94;;;-139.71;45.02
3598;BME280;1813;52.016;8.714;2022-12-17T13:04:05;-16261.94;;;-139.71;44.70
3598;BME280;1813;52.016;8.714;2022-12-17T13:07:00;-16261.94;;;-139.71;44.85
3598;BME280;1813;52.016;8.714;2022-12-17T13:09:47;-16261.94;;;-139.71;44.63
3598;BME280;1813;52.016;8.714;2022-12-17T13:12:34;-16261.94;;;-139.71;44.35
3598;BME280;1813;52.016;8.714;2022-12-17T13:15:22;-16261.94;;;-139.71;44.23
3598;BME280;1813;52.016;8.714;2022-12-17T13:18:03;-16261.94;;;-139.71;44.04
3598;BME280;1813;52.016;8.714;2022-12-17T13:20:58;-16261.94;;;-139.71;44.13
3598;BME280;1813;52.016;8.714;2022-12-17T13:23:35;-16261.94;;;-139.71;44.29
3598;BME280;1813;52.016;8.714;2022-12-17T13:26:20;-16261.94;;;-139.71;44.28
3598;BME280;1813;52.016;8.714;2022-12-17T13:29:09;-16261.94;;;-139.71;44.17
3598;BME280;1813;52.016;8.714;2022-12-17T13:34:47;-16261.94;;;-139.71;44.45
3598;BME280;1813;52.016;8.714;2022-12-17T13:37:31;-16261.94;;;-139.71;44.60
3598;BME280;1813;52.016;8.714;2022-12-17T13:40:18;-16261.94;;;-139.71;44.78
3598;BME280;1813;52.016;8.714;2022-12-17T13:43:01;-16261.94;;;-139.71;44.69
3598;BME280;1813;52.016;8.714;2022-12-17T13:45:36;-16261.94;;;-139.71;44.71
3598;BME280;1813;52.016;8.714;2022-12-17T13:48:20;-16261.94;;;-139.71;44.71
3598;BME280;1813;52.016;8.714;2022-12-17T13:50:56;-16261.94;;;-139.71;44.73
3598;BME280;1813;52.016;8.714;2022-12-17T13:53:34;-16261.94;;;-139.71;44.86
3598;BME280;1813;52.016;8.714;2022-12-17T13:56:09;-16261.94;;;-139.71;45.10
3598;BME280;1813;52.016;8.714;2022-12-17T13:58:50;-16261.94;;;-139.71;45.34
3598;BME280;1813;52.016;8.714;2022-12-17T14:01:24;-16261.94;;;-139.71;45.14
3598;BME280;1813;52.016;8.714;2022-12-17T14:04:00;-16261.94;;;-139.71;45.34
3598;BME280;1813;52.016;8.714;2022-12-17T14:06:36;-16261.94;;;-139.71;45.73
3598;BME280;1813;52.016;8.714;2022-12-17T14:09:13;-16261.94;;;-139.71;45.64
3598;BME280;1813;52.016;8.714;2022-12-17T14:11:50;-16261.94;;;-139.71;45.76
3598;BME280;1813;52.016;8.714;2022-12-17T14:14:40;-16261.94;;;-139.71;45.87
3598;BME280;1813;52.016;8.714;2022-12-17T14:17:19;-16261.94;;;-139.71;45.61
3598;BME280;1813;52.016;8.714;2022-12-17T14:19:57;-16261.94;;;-139.71;45.52
3598;BME280;1813;52.016;8.714;2022-12-17T14:22:34;-16261.94;;;-139.71;45.83
3598;BME280;1813;52.016;8.714;2022-12-17T14:25:14;-16261.94;;;-139.71;46.09
3598;BME280;1813;52.016;8.714;2022-12-17T14:27:52;-16261.94;;;-139.71;46.47
3598;BME280;1813;52.016;8.714;2022-12-17T14:30:35;-16261.94;;;-139.71;47.01
3598;BME280;1813;52.016;8.714;2022-12-17T14:33:25;-16261.94;;;-139.71;47.53
3598;BME280;1813;52.016;8.714;2022-12-17T14:36:02;-16261.94;;;-139.71;47.90
3598;BME280;1813;52.016;8.714;2022-12-17T14:38:38;-16261.94;;;-139.71;48.01
3598;BME280;1813;52.016;8.714;2022-12-17T14:41:12;-16261.94;;;-139.71;48.50